createdAt,value
2023-03-03T00:00:35.453Z,94068.00
2023-03-03T00:04:55.466Z,94071.00
2023-03-03T00:08:59.268Z,94087.00
2023-03-03T00:13:04.510Z,94054.00
2023-03-03T00:17:22.540Z,94054.00
2023-03-03T00:21:30.609Z,94054.00
2023-03-03T00:25:38.508Z,94043.00
2023-03-03T00:29:49.659Z,94070.00
2023-03-03T00:33:57.066Z,94074.00
2023-03-03T00:38:36.740Z,94076.00
2023-03-03T00:42:40.409Z,94079.00
2023-03-03T00:46:45.627Z,94085.00
2023-03-03T00:50:54.609Z,94054.00
2023-03-03T00:54:58.355Z,94078.00
2023-03-03T00:59:01.946Z,94046.00
2023-03-03T01:04:08.940Z,94059.00
2023-03-03T01:08:15.036Z,94057.00
2023-03-03T01:12:44.868Z,94071.00
2023-03-03T01:16:50.434Z,94042.00
2023-03-03T01:21:52.319Z,94060.00
2023-03-03T01:25:57.558Z,94040.00
2023-03-03T01:30:01.401Z,94066.00
2023-03-03T01:34:23.486Z,94050.00
2023-03-03T01:38:27.559Z,94033.00
2023-03-03T01:42:32.814Z,94017.00
2023-03-03T01:47:26.324Z,94048.00
2023-03-03T01:51:32.582Z,94024.00
2023-03-03T01:55:38.570Z,94020.00
2023-03-03T02:00:10.549Z,94045.00
2023-03-03T02:04:18.247Z,94053.00
2023-03-03T02:08:25.220Z,94044.00
2023-03-03T02:12:36.249Z,94034.00
2023-03-03T02:16:42.091Z,94007.00
2023-03-03T02:21:04.544Z,94044.00
2023-03-03T02:25:12.781Z,94040.00
2023-03-03T02:29:17.908Z,94006.00
2023-03-03T02:33:30.737Z,94022.00
2023-03-03T02:37:34.488Z,94010.00
2023-03-03T02:41:42.354Z,94007.00
2023-03-03T02:45:49.782Z,94026.00
2023-03-03T02:49:53.521Z,94010.00
2023-03-03T02:53:57.149Z,94010.00
2023-03-03T02:58:02.645Z,94020.00
2023-03-03T03:02:09.199Z,94010.00
2023-03-03T03:06:13.218Z,94024.00
2023-03-03T03:10:17.808Z,94040.00
2023-03-03T03:14:24.174Z,94004.00
2023-03-03T03:18:30.209Z,94024.00
2023-03-03T03:22:35.008Z,94035.00
2023-03-03T03:26:41.794Z,93999.00
2023-03-03T03:30:46.965Z,94016.00
2023-03-03T03:34:52.480Z,94016.00
2023-03-03T03:39:18.714Z,94025.00
2023-03-03T03:43:24.923Z,93998.00
2023-03-03T03:47:29.546Z,94009.00
2023-03-03T03:52:01.036Z,94023.00
2023-03-03T03:56:29.412Z,94014.00
2023-03-03T04:00:35.565Z,93986.00
2023-03-03T04:04:39.312Z,94011.00
2023-03-03T04:08:45.679Z,94001.00
2023-03-03T04:12:49.428Z,94023.00
2023-03-03T04:16:54.000Z,94001.00
2023-03-03T04:21:08.192Z,94025.00
2023-03-03T04:25:16.852Z,94007.00
2023-03-03T04:30:06.724Z,94016.00
2023-03-03T04:34:10.631Z,94011.00
2023-03-03T04:38:15.564Z,94017.00
2023-03-03T04:42:48.510Z,94027.00
2023-03-03T04:46:52.405Z,94032.00
2023-03-03T04:50:56.799Z,94008.00
2023-03-03T04:55:01.044Z,94021.00
2023-03-03T04:59:06.261Z,94009.00
2023-03-03T05:03:11.148Z,94041.00
2023-03-03T05:07:17.833Z,94035.00
2023-03-03T05:11:21.336Z,94022.00
2023-03-03T05:20:14.838Z,94018.00
2023-03-03T05:24:23.955Z,94028.00
2023-03-03T05:28:27.884Z,94062.00
2023-03-03T05:32:31.576Z,94026.00
2023-03-03T05:36:36.738Z,94056.00
2023-03-03T05:40:40.742Z,94035.00
2023-03-03T05:44:44.491Z,94055.00
2023-03-03T05:48:48.338Z,94054.00
2023-03-03T05:52:54.062Z,94046.00
2023-03-03T05:56:59.791Z,94058.00
2023-03-03T06:01:03.549Z,94064.00
2023-03-03T06:05:08.845Z,94060.00
2023-03-03T06:09:27.678Z,94070.00
2023-03-03T06:13:31.305Z,94049.00
2023-03-03T06:18:27.267Z,94085.00
2023-03-03T06:22:30.944Z,94082.00
2023-03-03T06:26:36.670Z,94080.00
2023-03-03T06:30:40.458Z,94079.00
2023-03-03T06:34:52.373Z,94087.00
2023-03-03T06:38:56.091Z,94060.00
2023-03-03T06:43:04.535Z,94084.00
2023-03-03T06:47:08.248Z,94092.00
2023-03-03T06:51:32.883Z,94100.00
2023-03-03T06:55:36.424Z,94089.00
2023-03-03T06:59:42.814Z,94096.00
2023-03-03T07:03:47.801Z,94090.00
2023-03-03T07:07:51.449Z,94108.00
2023-03-03T07:11:58.000Z,94095.00
2023-03-03T07:16:13.435Z,94115.00
2023-03-03T07:20:24.561Z,94096.00
2023-03-03T07:24:29.972Z,94108.00
2023-03-03T07:28:35.167Z,94130.00
2023-03-03T07:33:28.293Z,94138.00
2023-03-03T07:37:46.967Z,94136.00
2023-03-03T07:41:51.718Z,94141.00
2023-03-03T07:45:57.540Z,94133.00
2023-03-03T07:50:22.401Z,94135.00
2023-03-03T07:54:42.662Z,94122.00
2023-03-03T07:58:46.397Z,94141.00
2023-03-03T08:03:08.114Z,94140.00
2023-03-03T08:07:16.792Z,94139.00
2023-03-03T08:11:22.967Z,94128.00
2023-03-03T08:15:29.600Z,94123.00
2023-03-03T08:19:33.399Z,94142.00
2023-03-03T08:23:36.989Z,94142.00
2023-03-03T08:27:43.144Z,94135.00
2023-03-03T08:31:46.960Z,94132.00
2023-03-03T08:35:51.089Z,94147.00
2023-03-03T08:39:57.756Z,94147.00
2023-03-03T08:44:02.759Z,94153.00
2023-03-03T08:48:07.139Z,94162.00
2023-03-03T08:53:15.617Z,94158.00
2023-03-03T08:57:19.308Z,94167.00
2023-03-03T09:01:24.603Z,94147.00
2023-03-03T09:05:40.918Z,94173.00
2023-03-03T09:09:44.569Z,94173.00
2023-03-03T09:14:04.400Z,94196.00
2023-03-03T09:18:17.755Z,94196.00
2023-03-03T09:22:23.783Z,94204.00
2023-03-03T09:26:53.801Z,94221.00
2023-03-03T09:31:00.468Z,94221.00
2023-03-03T09:35:36.900Z,94216.00
2023-03-03T09:39:40.574Z,94230.00
2023-03-03T09:44:29.003Z,94223.00
2023-03-03T09:48:57.309Z,94216.00
2023-03-03T09:53:29.558Z,94205.00
2023-03-03T09:58:26.005Z,94215.00
2023-03-03T10:02:47.369Z,94213.00
2023-03-03T10:07:07.815Z,94204.00
2023-03-03T10:11:28.188Z,94203.00
2023-03-03T10:15:57.270Z,94166.00
2023-03-03T10:20:15.251Z,94193.00
2023-03-03T10:24:31.958Z,94195.00
2023-03-03T10:29:04.050Z,94172.00
2023-03-03T10:33:24.655Z,94192.00
2023-03-03T10:38:05.872Z,94198.00
2023-03-03T10:42:32.598Z,94198.00
2023-03-03T10:47:15.384Z,94180.00
2023-03-03T10:51:28.983Z,94181.00
2023-03-03T10:56:16.383Z,94181.00
2023-03-03T11:00:42.923Z,94200.00
2023-03-03T11:05:15.519Z,94202.00
2023-03-03T11:09:53.485Z,94200.00
2023-03-03T11:14:03.167Z,94197.00
2023-03-03T11:24:35.382Z,94201.00
2023-03-03T11:29:04.734Z,94170.00
2023-03-03T11:37:41.599Z,94176.00
2023-03-03T11:42:11.327Z,94150.00
2023-03-03T11:46:18.084Z,94146.00
2023-03-03T11:50:25.655Z,94146.00
2023-03-03T11:54:34.321Z,94161.00
2023-03-03T11:58:46.948Z,94163.00
2023-03-03T12:03:13.507Z,94142.00
2023-03-03T12:07:32.964Z,94160.00
2023-03-03T12:11:46.527Z,94157.00
2023-03-03T12:16:06.717Z,94148.00
2023-03-03T12:20:31.080Z,94156.00
2023-03-03T12:25:03.084Z,94167.00
2023-03-03T12:29:12.523Z,94127.00
2023-03-03T12:33:49.883Z,94131.00
2023-03-03T12:37:57.002Z,94150.00
2023-03-03T12:42:25.696Z,94120.00
2023-03-03T12:46:47.652Z,94141.00
2023-03-03T12:51:18.202Z,94129.00
2023-03-03T12:55:32.117Z,94130.00
2023-03-03T12:59:46.970Z,94111.00
2023-03-03T13:04:02.336Z,94116.00
2023-03-03T13:08:50.829Z,94093.00
2023-03-03T13:13:04.098Z,94107.00
2023-03-03T13:17:24.881Z,94096.00
2023-03-03T13:21:33.279Z,94085.00
2023-03-03T13:25:49.422Z,94084.00
2023-03-03T13:30:06.357Z,94103.00
2023-03-03T13:34:22.053Z,94113.00
2023-03-03T13:38:30.257Z,94105.00
2023-03-03T13:42:49.289Z,94099.00
2023-03-03T13:47:04.313Z,94103.00
2023-03-03T13:51:22.949Z,94100.00
2023-03-03T13:55:31.143Z,94096.00
2023-03-03T13:59:59.692Z,94103.00
2023-03-03T14:04:25.853Z,94102.00
2023-03-03T14:08:45.618Z,94092.00
2023-03-03T14:12:56.744Z,94101.00
2023-03-03T14:17:09.690Z,94092.00
2023-03-03T14:26:02.289Z,94081.00
2023-03-03T14:30:38.223Z,94111.00
2023-03-03T14:34:43.496Z,94105.00
2023-03-03T14:38:51.942Z,94093.00
2023-03-03T14:42:57.639Z,94112.00
2023-03-03T14:47:22.673Z,94102.00
2023-03-03T14:51:30.789Z,94095.00
2023-03-03T14:55:38.895Z,94115.00
2023-03-03T15:00:12.219Z,94114.00
2023-03-03T15:04:32.563Z,94109.00
2023-03-03T15:08:38.752Z,94098.00
2023-03-03T15:12:44.095Z,94102.00
2023-03-03T15:17:36.086Z,94112.00
2023-03-03T15:22:08.160Z,94111.00
2023-03-03T15:26:35.272Z,94101.00
2023-03-03T15:35:17.157Z,94107.00
2023-03-03T15:39:38.183Z,94104.00
2023-03-03T15:43:56.819Z,94106.00
2023-03-03T15:48:35.351Z,94120.00
2023-03-03T15:52:54.807Z,94117.00
2023-03-03T15:57:00.015Z,94102.00
2023-03-03T16:01:17.924Z,94123.00
2023-03-03T16:05:26.305Z,94103.00
2023-03-03T16:09:44.819Z,94113.00
2023-03-03T16:14:17.156Z,94116.00
2023-03-03T16:19:01.297Z,94122.00
2023-03-03T16:23:31.046Z,94124.00
2023-03-03T16:28:05.811Z,94111.00
2023-03-03T16:37:16.428Z,94138.00
2023-03-03T16:41:24.996Z,94157.00
2023-03-03T16:45:41.677Z,94152.00
2023-03-03T16:49:56.829Z,94158.00
2023-03-03T16:54:18.118Z,94159.00
2023-03-03T16:58:40.638Z,94177.00
2023-03-03T17:03:20.875Z,94153.00
2023-03-03T17:07:58.468Z,94164.00
2023-03-03T17:12:23.514Z,94191.00
2023-03-03T17:16:51.063Z,94202.00
2023-03-03T17:21:00.391Z,94183.00
2023-03-03T17:25:17.141Z,94177.00
2023-03-03T17:29:35.866Z,94185.00
2023-03-03T17:34:05.117Z,94186.00
2023-03-03T17:38:22.106Z,94179.00
2023-03-03T17:42:44.907Z,94213.00
2023-03-03T17:52:04.928Z,94204.00
2023-03-03T17:56:33.173Z,94215.00
2023-03-03T18:01:07.402Z,94215.00
2023-03-03T18:05:47.886Z,94211.00
2023-03-03T18:10:10.027Z,94223.00
2023-03-03T18:14:44.224Z,94211.00
2023-03-03T18:19:46.980Z,94221.00
2023-03-03T18:23:52.265Z,94212.00
2023-03-03T18:28:22.606Z,94218.00
2023-03-03T18:32:44.565Z,94229.00
2023-03-03T18:36:59.400Z,94201.00
2023-03-03T18:41:06.902Z,94199.00
2023-03-03T18:45:43.945Z,94221.00
2023-03-03T18:50:10.620Z,94198.00
2023-03-03T18:54:34.881Z,94197.00
2023-03-03T18:58:42.257Z,94211.00
2023-03-03T19:03:06.798Z,94218.00
2023-03-03T19:07:28.016Z,94188.00
2023-03-03T19:11:39.611Z,94186.00
2023-03-03T19:16:05.762Z,94212.00
2023-03-03T19:24:39.588Z,94198.00
2023-03-03T19:28:59.234Z,94213.00
2023-03-03T19:33:36.607Z,94215.00
2023-03-03T19:38:00.248Z,94210.00
2023-03-03T19:42:30.070Z,94220.00
2023-03-03T19:46:46.916Z,94228.00
2023-03-03T19:50:58.419Z,94219.00
2023-03-03T19:55:20.604Z,94214.00
2023-03-03T20:04:54.826Z,94208.00
2023-03-03T20:09:05.244Z,94235.00
2023-03-03T20:13:23.058Z,94216.00
2023-03-03T20:18:01.452Z,94219.00
2023-03-03T20:22:58.982Z,94235.00
2023-03-03T20:27:06.826Z,94206.00
2023-03-03T20:31:47.222Z,94240.00
2023-03-03T20:36:01.824Z,94233.00
2023-03-03T20:40:29.711Z,94246.00
2023-03-03T20:45:01.387Z,94237.00
2023-03-03T20:49:44.443Z,94200.00
2023-03-03T20:54:07.904Z,94238.00
2023-03-03T21:03:12.466Z,94200.00
2023-03-03T21:07:30.896Z,94236.00
2023-03-03T21:11:50.737Z,94229.00
2023-03-03T21:15:59.192Z,94237.00
2023-03-03T21:20:32.182Z,94242.00
2023-03-03T21:25:01.808Z,94246.00
2023-03-03T21:29:05.394Z,94235.00
2023-03-03T21:33:40.416Z,94210.00
2023-03-03T21:37:55.416Z,94212.00
2023-03-03T21:42:02.273Z,94241.00
2023-03-03T21:47:23.831Z,94238.00
2023-03-03T21:51:29.139Z,94228.00
2023-03-03T21:55:34.257Z,94224.00
2023-03-03T21:59:40.183Z,94211.00
2023-03-03T22:03:45.822Z,94215.00
2023-03-03T22:07:56.650Z,94214.00
2023-03-03T22:12:01.773Z,94232.00
2023-03-03T22:16:07.889Z,94215.00
2023-03-03T22:20:15.458Z,94200.00
2023-03-03T22:24:19.462Z,94207.00
2023-03-03T22:29:28.177Z,94230.00
2023-03-03T22:33:33.325Z,94226.00
2023-03-03T22:37:39.968Z,94229.00
2023-03-03T22:41:47.041Z,94228.00
2023-03-03T22:45:50.885Z,94239.00
2023-03-03T22:49:56.200Z,94226.00
2023-03-03T22:54:00.139Z,94241.00
2023-03-03T22:58:03.927Z,94218.00
2023-03-03T23:02:07.771Z,94212.00
2023-03-03T23:06:12.876Z,94223.00
2023-03-03T23:10:41.469Z,94225.00
2023-03-03T23:14:45.145Z,94221.00
2023-03-03T23:18:48.698Z,94215.00
2023-03-03T23:22:54.036Z,94201.00
2023-03-03T23:28:00.725Z,94225.00
2023-03-03T23:32:05.466Z,94199.00
2023-03-03T23:36:09.726Z,94211.00
2023-03-03T23:40:23.246Z,94216.00
2023-03-03T23:44:26.927Z,94197.00
2023-03-03T23:49:19.856Z,94214.00
2023-03-03T23:54:25.038Z,94208.00
2023-03-03T23:58:30.196Z,94200.00
